Weather observations for the past three days for
Eureka Airport ASOS
Imperial (Metric)
Date Time (pdt) Wind (mph) Vis. (mi.) Weather Sky Cond. Temperature (ºF) Relative Humidity Wind Chill (°F) Heat Index (°F) Pressure Precipitation (in)
Air Dwpt 6 hour altimeter (in) sea level (mb) 1 hr 3 hr 6 hr
Max. Min.
07 00:53 S 12 0.00 NULL NULL 44.1 28 53% 39 30.18 1017.1
06 23:53 S 9 0.00 NULL NULL 46 27 47% 42 30.18 1017.4
06 22:53 S 8 0.00 NULL NULL 46 28.9 69.1 45 51% 42 30.19 1017.8
06 21:53 SE 7 0.00 NULL NULL 46 30.9 56% 43 30.2 1018.3
06 20:53 S 7 0.00 NULL NULL 51.1 30.9 46% 30.18 1017.5
06 19:53 W 5 0.00 NULL NULL 55.9 30 37% 30.16 1016.8
06 18:53 NE 9 0.00 NULL NULL 64.9 25 22% 30.15 1016.1
06 17:53 N 8 G 18 0.00 NULL NULL 66.9 21.9 18% 30.14 1016.1
06 16:53 Vrbl 6 G 20 0.00 NULL NULL 68 21.9 69.1 57.9 17% 30.14 1016.0
06 15:53 N 9 0.00 NULL NULL 68 23 18% 30.15 1016.0
06 14:53 Vrbl 5 G 17 0.00 NULL NULL 66 23 19% 30.16 1016.9
06 13:53 N 14 G 20 0.00 NULL NULL 66 27 23% 30.17 1017.0
06 12:53 Vrbl 6 G 21 0.00 NULL NULL 63 32 31% 30.17 1017.2
06 11:53 NE 7 G 18 0.00 NULL NULL 60.1 34 38% 30.18 1017.5
06 10:53 NE 6 0.00 NULL NULL 57.9 36 59 35.1 44% 30.18 1017.6
06 09:53 N 9 0.00 NULL NULL 55.9 39.9 55% 30.16 1017.2
06 08:53 Calm 0.00 NULL NULL 52 39 61% 30.15 1017.2
06 07:53 Calm 0.00 NULL NULL 46.9 43 86% 30.14 1017.0
06 06:53 S 3 0.00 NULL NULL 41 39 93% 30.12 1016.9
06 05:53 S 6 0.00 NULL NULL 36 35.1 97% 32 30.09 1016.1
06 04:53 SE 6 0.00 NULL NULL 35.1 34 42.1 35.1 96% 31 30.08 1015.4
06 03:53 Calm 0.00 NULL NULL 37.9 36 93% 30.06 1014.3
06 02:53 S 9 0.00 NULL NULL 36 35.1 97% 30 30.04 1013.7
06 01:53 S 7 0.00 NULL NULL 37.9 37 97% 33 30.03 1013.4
06 00:53 W 3 0.00 NULL NULL 39.9 39 97% 30.03 1013.4
05 23:53 S 8 0.00 NULL NULL 41 39.9 96% 36 30.01 1012.7
05 22:53 S 5 0.00 NULL NULL 41 39.9 55.9 41 96% 38 30.01 1012.7 0.05
05 21:53 S 5 0.00 NULL NULL 43 41 93% 41 29.99 1011.8
05 20:53 SE 7 0.00 NULL NULL 44.1 43 96% 41 29.98 1011.8
05 19:53 W 5 0.00 NULL NULL 46.9 45 93% 45 29.96 1011.0 0.01 0.05
05 18:53 NW 8 0.00 NULL NULL 48 45 89% 45 29.95 1010.9 0.04
05 17:53 E 7 G 18 0.00 NULL NULL 52 39.9 64% 29.91 1009.5
05 16:53 N 8 0.00 NULL NULL 55.9 34 59 51.1 44% 29.9 1008.3
05 15:53 NE 7 0.00 NULL NULL 55.9 32 40% 29.9 1008.0
05 14:53 SW 7 0.00 NULL NULL 57 32 39% 29.91 1008.2
05 13:53 W 8 0.00 NULL NULL 55 36 49% 29.93 1009.1
05 12:53 Vrbl 3 0.00 NULL NULL 54 36 51% 29.92 1008.9
05 11:53 N 8 0.00 NULL NULL 52 37.9 59% 29.92 1009.3
05 10:53 N 6 0.00 NULL NULL 53.1 39 53.1 37.9 59% 29.91 1008.6
05 09:53 N 8 0.00 NULL NULL 50 41 71% 47 29.91 1009.1
05 08:53 N 7 0.00 NULL NULL 48 42.1 80% 45 29.9 1008.7
05 07:53 Calm 0.00 NULL NULL 45 39.9 83% 29.89 1008.7
05 06:53 S 5 0.00 NULL NULL 41 39 93% 38 29.88 1008.8
05 05:53 Calm 0.00 NULL NULL 37.9 37 97% 29.87 1008.4
05 04:53 Calm 0.00 NULL NULL 39.9 39 45 39.9 97% 29.86 1007.7
05 03:53 Calm 0.00 NULL NULL 41 39.9 96% 29.85 1006.2
05 02:53 S 6 0.00 NULL NULL 43 41 93% 40 29.86 1006.1
05 01:53 NE 7 0.00 NULL NULL 43 41 93% 39 29.87 1006.9
05 00:53 S 3 0.00 NULL NULL 44.1 42.1 93% 29.88 1006.3
04 23:53 W 3 0.00 NULL NULL 43 41 93% 29.87 1006.0
04 22:53 SW 5 0.00 NULL NULL 45 42.1 51.1 44.1 90% 43 29.87 1006.1 0.08
04 21:53 NE 7 0.00 NULL NULL 44.1 42.1 93% 41 29.88 1006.7 0.01
04 20:53 SW 5 0.00 NULL NULL 45 41 86% 43 29.89 1007.5
04 19:53 SW 8 0.00 NULL NULL 45 41 86% 41 29.86 1007.1 0.01 0.07
04 18:53 W 8 0.00 NULL NULL 46 43 89% 42 29.87 1007.7 0.06
04 17:53 W 8 G 20 0.00 NULL NULL 48 43 83% 45 29.86 1007.5
04 16:53 N 8 0.00 NULL NULL 50 42.1 66 50 74% 47 29.84 1006.6 0.05 0.05
04 15:53 N 10 0.00 NULL NULL 60.1 33.1 36% 29.81 1004.4
04 14:53 SW 15 G 23 0.00 NULL NULL 60.1 33.1 36% 29.83 1005.5
04 13:53 E 8 0.00 NULL NULL 57.9 30 35% 29.85 1006.3
04 12:53 S 22 G 33 0.00 Breezy NULL 63 30 29% 29.83 1004.6
04 11:53 S 9 G 22 0.00 NULL NULL 64 26.1 24% 29.83 1005.1
04 10:53 Vrbl 3 0.00 NULL NULL 62.1 30 62.1 44.1 30% 29.85 1005.5
04 09:53 S 5 0.00 NULL NULL 59 30.9 35% 29.86 1005.6
04 08:53 S 6 0.00 NULL NULL 57 30 36% 29.87 1005.8
04 07:53 SE 7 0.00 NULL NULL 51.1 33.1 50% 29.9 1007.1
04 06:53 SW 6 0.00 NULL NULL 48 32 54% 46 29.91 1007.0
04 05:53 NE 5 0.00 NULL NULL 44.1 30.9 60% 42 29.9 1006.9
04 04:53 SW 5 0.00 NULL NULL 44.1 30 46.9 37 58% 42 29.91 1006.7
04 03:53 S 8 0.00 NULL NULL 44.1 28.9 55% 40 29.9 1006.5
04 02:53 S 7 0.00 NULL NULL 39.9 28 63% 36 29.91 1007.5
04 01:53 W 5 0.00 NULL NULL 39.9 26.1 58% 37 29.91 1007.1
Date Time (pdt) Wind (mph) Vis. (mi.) Weather Sky Cond. Air Dwpt Max. Min. Relative Humidity Wind Chill (°F) Heat Index (°F) altimeter (in) sea level (mb) 1 hr 3 hr 6 hr
6 hour
Temperature (ºF) Pressure Precipitation (in)